Akron, NY (14001)

6:55 PM EDT on August 30, 2015 (GMT -0400)
Utley Road | | Change Station
CLOSE
Current Station
Personal Weather Station
Location: Akron, NY
Elevation: 646 ft
Nearby Weather Stations

Elev 646 ft 43.02 °N, 78.57 °W | Updated 3 seconds ago

Partly Cloudy
Partly Cloudy
77.5 °F
Feels Like 79 °F
N
2.7
Wind Variable Wind from West
Gusts 4.9 mph

Today
High -- | Low -- °F
--% Chance of Precip.
Yesterday
High -- | Low -- °F
Precip. -- in
6:35 AM 7:52 PM
Full, 98% visible
Pressure 30.03 in
Visibility 10.0 miles
Clouds Few 3000 ft
Few 9000 ft
Few 23000 ft
Heat Index 79 °F
Dew Point 64 °F
Humidity 63%
Rainfall 0.02 in
Snow Depth Not available.
UV 1.0 out of 12
Pollen 10.00 out of 12
Air Quality Not available.
Flu Activity Not available.
METAR KBUF 302154Z 21010KT 10SM FEW030 FEW090 FEW230 25/16 A3004 RMK AO2 SLP168 MDT CU DSNT N-NE T02500161
Pressure 30.03 in
Visibility 10.0 miles
Clouds Few 3000 ft
Few 9000 ft
Few 23000 ft
Heat Index 79 °F
Dew Point 64 °F
Humidity 63%
Rainfall 0.02 in
Snow Depth Not available.
UV 1.0 out of 12
Pollen 10.00 out of 12
Air Quality Not available.
Flu Activity Not available.
METAR KBUF 302154Z 21010KT 10SM FEW030 FEW090 FEW230 25/16 A3004 RMK AO2 SLP168 MDT CU DSNT N-NE T02500161

10-Day Weather Forecast

×

Almanac

Astronomy

Aug. 30, 2015 Rise Set
Actual Time
Civil Twilight
Nautical Twilight
Astronomical Twilight
Moon
Length of Visible Light
Length of Day
Tomorrow will be .
, % of the Moon is Illuminated

Today's Extremes

State Highs State Lows

Community

WunderPhotos

Upload Photos

1,851,075 photos uploaded!

WunderBlogs® & News

Nearby

Air Quality

  Air Quality AQ Index Pollutant
Not available.

Snow Depth

Station Depth Elevation

Earthquake Activity

City Distance Mag. Time & Date
Minimum magnitude displayed is 2.5.

Coastal Water Temperatures

Place Temperature

Stations

Nearby Weather Stations

Station Location Temp. Windchill Dew Point Humidity Wind Precip. Elev Updated Type